sensor_id;sensor_type;location;lat;lon;timestamp;P1;durP1;ratioP1;P2;durP2;ratioP2
15246;SDS011;7726;48.820;9.248;2022-12-10T00:01:37;22.67;;;16.57;;
15246;SDS011;7726;48.820;9.248;2022-12-10T00:04:05;20.97;;;17.03;;
15246;SDS011;7726;48.820;9.248;2022-12-10T00:06:32;24.83;;;16.30;;
15246;SDS011;7726;48.820;9.248;2022-12-10T00:09:00;21.77;;;16.10;;
15246;SDS011;7726;48.820;9.248;2022-12-10T00:11:27;22.30;;;16.27;;
15246;SDS011;7726;48.820;9.248;2022-12-10T00:13:55;23.73;;;15.47;;
15246;SDS011;7726;48.820;9.248;2022-12-10T00:16:24;23.83;;;16.33;;
15246;SDS011;7726;48.820;9.248;2022-12-10T00:18:52;20.90;;;15.00;;
15246;SDS011;7726;48.820;9.248;2022-12-10T00:21:20;21.73;;;15.60;;
15246;SDS011;7726;48.820;9.248;2022-12-10T00:23:47;19.97;;;14.67;;
15246;SDS011;7726;48.820;9.248;2022-12-10T00:26:15;21.53;;;16.03;;
15246;SDS011;7726;48.820;9.248;2022-12-10T00:28:44;20.63;;;15.03;;
15246;SDS011;7726;48.820;9.248;2022-12-10T00:31:11;21.47;;;16.00;;
15246;SDS011;7726;48.820;9.248;2022-12-10T00:33:40;23.63;;;16.30;;
15246;SDS011;7726;48.820;9.248;2022-12-10T00:36:09;22.93;;;16.37;;
15246;SDS011;7726;48.820;9.248;2022-12-10T00:38:36;21.97;;;16.43;;
15246;SDS011;7726;48.820;9.248;2022-12-10T00:41:04;24.20;;;15.53;;
15246;SDS011;7726;48.820;9.248;2022-12-10T00:43:31;24.03;;;16.37;;
15246;SDS011;7726;48.820;9.248;2022-12-10T00:45:58;21.47;;;15.83;;
15246;SDS011;7726;48.820;9.248;2022-12-10T00:48:26;23.10;;;16.73;;
15246;SDS011;7726;48.820;9.248;2022-12-10T00:50:58;22.73;;;15.43;;
15246;SDS011;7726;48.820;9.248;2022-12-10T00:53:26;22.70;;;16.27;;
15246;SDS011;7726;48.820;9.248;2022-12-10T00:55:54;22.87;;;15.77;;
15246;SDS011;7726;48.820;9.248;2022-12-10T00:58:21;22.43;;;15.77;;
15246;SDS011;7726;48.820;9.248;2022-12-10T01:00:48;21.53;;;15.37;;
15246;SDS011;7726;48.820;9.248;2022-12-10T01:03:16;20.63;;;14.70;;
15246;SDS011;7726;48.820;9.248;2022-12-10T01:05:43;20.83;;;15.10;;
15246;SDS011;7726;48.820;9.248;2022-12-10T01:08:11;22.57;;;16.87;;
15246;SDS011;7726;48.820;9.248;2022-12-10T01:10:38;21.17;;;15.43;;
15246;SDS011;7726;48.820;9.248;2022-12-10T01:13:06;21.93;;;15.23;;
15246;SDS011;7726;48.820;9.248;2022-12-10T01:15:36;20.80;;;15.37;;
15246;SDS011;7726;48.820;9.248;2022-12-10T01:18:03;21.87;;;15.73;;
15246;SDS011;7726;48.820;9.248;2022-12-10T01:20:33;21.83;;;15.43;;
15246;SDS011;7726;48.820;9.248;2022-12-10T01:23:01;20.97;;;14.67;;
15246;SDS011;7726;48.820;9.248;2022-12-10T01:25:29;23.07;;;16.07;;
15246;SDS011;7726;48.820;9.248;2022-12-10T01:27:56;21.60;;;15.80;;
15246;SDS011;7726;48.820;9.248;2022-12-10T01:30:24;20.37;;;15.37;;
15246;SDS011;7726;48.820;9.248;2022-12-10T01:32:51;22.30;;;15.03;;
15246;SDS011;7726;48.820;9.248;2022-12-10T01:35:18;20.57;;;14.93;;
15246;SDS011;7726;48.820;9.248;2022-12-10T01:37:45;22.50;;;15.03;;
15246;SDS011;7726;48.820;9.248;2022-12-10T01:40:12;20.77;;;14.87;;
15246;SDS011;7726;48.820;9.248;2022-12-10T01:42:41;23.07;;;15.27;;
15246;SDS011;7726;48.820;9.248;2022-12-10T01:45:09;21.17;;;14.97;;
15246;SDS011;7726;48.820;9.248;2022-12-10T01:47:37;19.57;;;14.13;;
15246;SDS011;7726;48.820;9.248;2022-12-10T01:50:05;29.07;;;19.77;;
15246;SDS011;7726;48.820;9.248;2022-12-10T01:52:32;19.03;;;14.40;;
15246;SDS011;7726;48.820;9.248;2022-12-10T01:54:59;22.33;;;14.67;;
15246;SDS011;7726;48.820;9.248;2022-12-10T01:57:27;20.57;;;14.73;;
15246;SDS011;7726;48.820;9.248;2022-12-10T01:59:58;24.07;;;17.13;;
15246;SDS011;7726;48.820;9.248;2022-12-10T02:02:33;20.00;;;14.20;;
15246;SDS011;7726;48.820;9.248;2022-12-10T02:05:08;19.57;;;14.30;;
15246;SDS011;7726;48.820;9.248;2022-12-10T02:07:44;20.80;;;13.57;;
15246;SDS011;7726;48.820;9.248;2022-12-10T02:10:19;19.73;;;14.00;;
15246;SDS011;7726;48.820;9.248;2022-12-10T02:12:48;21.17;;;14.10;;
15246;SDS011;7726;48.820;9.248;2022-12-10T02:15:18;19.33;;;13.97;;
15246;SDS011;7726;48.820;9.248;2022-12-10T02:17:48;20.13;;;14.63;;
15246;SDS011;7726;48.820;9.248;2022-12-10T02:20:17;20.37;;;14.13;;
15246;SDS011;7726;48.820;9.248;2022-12-10T02:22:46;32.67;;;20.07;;
15246;SDS011;7726;48.820;9.248;2022-12-10T02:25:15;25.57;;;17.00;;
15246;SDS011;7726;48.820;9.248;2022-12-10T02:27:45;22.10;;;14.93;;
15246;SDS011;7726;48.820;9.248;2022-12-10T02:30:15;22.77;;;15.90;;
15246;SDS011;7726;48.820;9.248;2022-12-10T02:32:43;19.90;;;14.07;;
15246;SDS011;7726;48.820;9.248;2022-12-10T02:35:11;19.07;;;14.13;;
15246;SDS011;7726;48.820;9.248;2022-12-10T02:37:40;21.23;;;14.00;;
15246;SDS011;7726;48.820;9.248;2022-12-10T02:40:11;19.90;;;14.47;;
15246;SDS011;7726;48.820;9.248;2022-12-10T02:42:40;18.63;;;13.60;;
15246;SDS011;7726;48.820;9.248;2022-12-10T02:45:09;21.53;;;13.43;;
15246;SDS011;7726;48.820;9.248;2022-12-10T02:47:39;21.23;;;14.10;;
15246;SDS011;7726;48.820;9.248;2022-12-10T02:50:06;19.43;;;14.17;;
15246;SDS011;7726;48.820;9.248;2022-12-10T02:52:34;18.93;;;14.10;;
15246;SDS011;7726;48.820;9.248;2022-12-10T02:55:01;18.63;;;13.07;;
15246;SDS011;7726;48.820;9.248;2022-12-10T02:57:30;19.90;;;14.00;;
15246;SDS011;7726;48.820;9.248;2022-12-10T03:00:04;19.40;;;13.37;;
15246;SDS011;7726;48.820;9.248;2022-12-10T03:02:34;19.37;;;13.33;;
15246;SDS011;7726;48.820;9.248;2022-12-10T03:05:07;23.23;;;14.07;;
15246;SDS011;7726;48.820;9.248;2022-12-10T03:07:37;16.83;;;12.47;;
15246;SDS011;7726;48.820;9.248;2022-12-10T03:10:07;20.20;;;14.10;;
15246;SDS011;7726;48.820;9.248;2022-12-10T03:12:42;20.90;;;13.93;;
15246;SDS011;7726;48.820;9.248;2022-12-10T03:15:11;16.53;;;13.10;;
15246;SDS011;7726;48.820;9.248;2022-12-10T03:17:39;19.70;;;13.67;;
15246;SDS011;7726;48.820;9.248;2022-12-10T03:20:10;19.90;;;14.03;;
15246;SDS011;7726;48.820;9.248;2022-12-10T03:22:39;20.43;;;14.50;;
15246;SDS011;7726;48.820;9.248;2022-12-10T03:25:08;20.00;;;13.40;;
15246;SDS011;7726;48.820;9.248;2022-12-10T03:27:36;21.33;;;13.83;;
15246;SDS011;7726;48.820;9.248;2022-12-10T03:30:04;21.80;;;14.03;;
15246;SDS011;7726;48.820;9.248;2022-12-10T03:32:31;20.90;;;13.77;;
15246;SDS011;7726;48.820;9.248;2022-12-10T03:34:58;21.00;;;13.93;;
15246;SDS011;7726;48.820;9.248;2022-12-10T03:37:28;21.20;;;13.43;;
15246;SDS011;7726;48.820;9.248;2022-12-10T03:39:55;19.70;;;13.80;;
15246;SDS011;7726;48.820;9.248;2022-12-10T03:42:23;19.23;;;13.00;;
15246;SDS011;7726;48.820;9.248;2022-12-10T03:44:51;18.87;;;13.27;;
15246;SDS011;7726;48.820;9.248;2022-12-10T03:47:18;20.17;;;13.23;;
15246;SDS011;7726;48.820;9.248;2022-12-10T03:49:46;20.53;;;13.57;;
15246;SDS011;7726;48.820;9.248;2022-12-10T03:52:13;19.83;;;12.77;;
15246;SDS011;7726;48.820;9.248;2022-12-10T03:54:41;21.73;;;13.90;;
15246;SDS011;7726;48.820;9.248;2022-12-10T03:57:09;19.43;;;13.93;;
15246;SDS011;7726;48.820;9.248;2022-12-10T03:59:36;19.93;;;13.87;;
15246;SDS011;7726;48.820;9.248;2022-12-10T04:02:03;19.57;;;13.67;;
15246;SDS011;7726;48.820;9.248;2022-12-10T04:04:30;18.83;;;13.23;;
15246;SDS011;7726;48.820;9.248;2022-12-10T04:06:57;21.17;;;13.87;;
15246;SDS011;7726;48.820;9.248;2022-12-10T04:09:25;18.50;;;13.03;;
15246;SDS011;7726;48.820;9.248;2022-12-10T04:11:55;18.80;;;13.30;;
15246;SDS011;7726;48.820;9.248;2022-12-10T04:14:23;19.53;;;12.80;;
15246;SDS011;7726;48.820;9.248;2022-12-10T04:17:08;18.97;;;13.63;;
15246;SDS011;7726;48.820;9.248;2022-12-10T04:19:35;20.97;;;13.80;;
15246;SDS011;7726;48.820;9.248;2022-12-10T04:22:03;17.33;;;12.50;;
15246;SDS011;7726;48.820;9.248;2022-12-10T04:24:44;17.57;;;12.77;;
15246;SDS011;7726;48.820;9.248;2022-12-10T04:27:31;18.57;;;13.33;;
15246;SDS011;7726;48.820;9.248;2022-12-10T04:29:58;17.90;;;13.53;;
15246;SDS011;7726;48.820;9.248;2022-12-10T04:32:26;19.93;;;13.63;;
15246;SDS011;7726;48.820;9.248;2022-12-10T04:34:54;19.50;;;13.63;;
15246;SDS011;7726;48.820;9.248;2022-12-10T04:37:21;20.27;;;14.20;;
15246;SDS011;7726;48.820;9.248;2022-12-10T04:39:49;19.20;;;13.57;;
15246;SDS011;7726;48.820;9.248;2022-12-10T04:42:16;20.47;;;13.33;;
15246;SDS011;7726;48.820;9.248;2022-12-10T04:44:44;21.57;;;13.53;;
15246;SDS011;7726;48.820;9.248;2022-12-10T04:47:12;19.37;;;13.30;;
15246;SDS011;7726;48.820;9.248;2022-12-10T04:49:39;19.57;;;13.77;;
15246;SDS011;7726;48.820;9.248;2022-12-10T04:52:07;17.60;;;13.47;;
15246;SDS011;7726;48.820;9.248;2022-12-10T04:54:35;19.63;;;14.10;;
15246;SDS011;7726;48.820;9.248;2022-12-10T04:57:02;18.40;;;13.30;;
15246;SDS011;7726;48.820;9.248;2022-12-10T04:59:29;19.93;;;14.30;;
15246;SDS011;7726;48.820;9.248;2022-12-10T05:01:57;19.97;;;14.67;;
15246;SDS011;7726;48.820;9.248;2022-12-10T05:04:25;19.60;;;14.10;;
15246;SDS011;7726;48.820;9.248;2022-12-10T05:06:52;19.73;;;14.40;;
15246;SDS011;7726;48.820;9.248;2022-12-10T05:09:19;16.90;;;13.33;;
15246;SDS011;7726;48.820;9.248;2022-12-10T05:11:47;19.43;;;14.33;;
15246;SDS011;7726;48.820;9.248;2022-12-10T05:14:15;19.87;;;14.13;;
15246;SDS011;7726;48.820;9.248;2022-12-10T05:16:42;18.53;;;13.07;;
15246;SDS011;7726;48.820;9.248;2022-12-10T05:19:11;21.73;;;13.50;;
15246;SDS011;7726;48.820;9.248;2022-12-10T05:21:38;18.60;;;13.73;;
15246;SDS011;7726;48.820;9.248;2022-12-10T05:24:23;18.47;;;13.33;;
15246;SDS011;7726;48.820;9.248;2022-12-10T05:26:50;20.87;;;15.07;;
15246;SDS011;7726;48.820;9.248;2022-12-10T05:29:18;19.13;;;13.73;;
15246;SDS011;7726;48.820;9.248;2022-12-10T05:31:45;19.20;;;13.73;;
15246;SDS011;7726;48.820;9.248;2022-12-10T05:34:14;20.60;;;14.57;;
15246;SDS011;7726;48.820;9.248;2022-12-10T05:36:41;20.17;;;14.03;;
15246;SDS011;7726;48.820;9.248;2022-12-10T05:39:09;18.37;;;14.33;;
15246;SDS011;7726;48.820;9.248;2022-12-10T05:41:37;19.00;;;13.93;;
15246;SDS011;7726;48.820;9.248;2022-12-10T05:44:05;22.07;;;13.90;;
15246;SDS011;7726;48.820;9.248;2022-12-10T05:46:33;18.50;;;13.10;;
15246;SDS011;7726;48.820;9.248;2022-12-10T05:49:01;20.63;;;13.93;;
15246;SDS011;7726;48.820;9.248;2022-12-10T05:51:31;19.13;;;13.40;;
15246;SDS011;7726;48.820;9.248;2022-12-10T05:53:58;20.93;;;13.63;;
15246;SDS011;7726;48.820;9.248;2022-12-10T05:56:26;18.57;;;13.80;;
15246;SDS011;7726;48.820;9.248;2022-12-10T05:58:54;19.17;;;13.73;;
15246;SDS011;7726;48.820;9.248;2022-12-10T06:01:22;19.97;;;13.40;;
15246;SDS011;7726;48.820;9.248;2022-12-10T06:03:50;19.93;;;14.00;;
15246;SDS011;7726;48.820;9.248;2022-12-10T06:06:19;19.73;;;13.90;;
15246;SDS011;7726;48.820;9.248;2022-12-10T06:08:48;17.83;;;13.23;;
15246;SDS011;7726;48.820;9.248;2022-12-10T06:11:15;18.77;;;13.23;;
15246;SDS011;7726;48.820;9.248;2022-12-10T06:13:43;20.83;;;13.43;;
15246;SDS011;7726;48.820;9.248;2022-12-10T06:16:11;19.07;;;12.93;;
15246;SDS011;7726;48.820;9.248;2022-12-10T06:18:38;19.20;;;13.50;;
15246;SDS011;7726;48.820;9.248;2022-12-10T06:21:07;19.80;;;14.10;;
15246;SDS011;7726;48.820;9.248;2022-12-10T06:23:34;20.83;;;14.23;;
15246;SDS011;7726;48.820;9.248;2022-12-10T06:26:04;19.33;;;14.30;;
15246;SDS011;7726;48.820;9.248;2022-12-10T06:28:31;18.93;;;12.77;;
15246;SDS011;7726;48.820;9.248;2022-12-10T06:30:58;20.20;;;13.70;;
15246;SDS011;7726;48.820;9.248;2022-12-10T06:33:26;14.07;;;10.37;;
15246;SDS011;7726;48.820;9.248;2022-12-10T06:35:53;21.23;;;13.20;;
15246;SDS011;7726;48.820;9.248;2022-12-10T06:38:20;20.43;;;14.57;;
15246;SDS011;7726;48.820;9.248;2022-12-10T06:40:48;22.57;;;12.97;;
15246;SDS011;7726;48.820;9.248;2022-12-10T06:43:17;19.90;;;13.93;;
15246;SDS011;7726;48.820;9.248;2022-12-10T06:45:44;19.60;;;13.70;;
15246;SDS011;7726;48.820;9.248;2022-12-10T06:48:11;19.53;;;13.90;;
15246;SDS011;7726;48.820;9.248;2022-12-10T06:50:39;21.13;;;13.33;;
15246;SDS011;7726;48.820;9.248;2022-12-10T06:53:07;19.03;;;13.27;;
15246;SDS011;7726;48.820;9.248;2022-12-10T06:55:35;21.10;;;15.00;;
15246;SDS011;7726;48.820;9.248;2022-12-10T06:58:03;22.27;;;14.73;;
15246;SDS011;7726;48.820;9.248;2022-12-10T07:00:31;19.53;;;13.77;;
15246;SDS011;7726;48.820;9.248;2022-12-10T07:02:58;22.93;;;14.63;;
15246;SDS011;7726;48.820;9.248;2022-12-10T07:05:26;18.50;;;13.03;;
15246;SDS011;7726;48.820;9.248;2022-12-10T07:07:53;20.50;;;14.20;;
15246;SDS011;7726;48.820;9.248;2022-12-10T07:10:20;21.03;;;13.33;;
15246;SDS011;7726;48.820;9.248;2022-12-10T07:12:47;22.57;;;13.73;;
15246;SDS011;7726;48.820;9.248;2022-12-10T07:15:14;18.60;;;13.30;;
15246;SDS011;7726;48.820;9.248;2022-12-10T07:17:43;20.70;;;14.23;;
15246;SDS011;7726;48.820;9.248;2022-12-10T07:20:10;20.83;;;14.13;;
15246;SDS011;7726;48.820;9.248;2022-12-10T07:22:37;18.60;;;14.30;;
15246;SDS011;7726;48.820;9.248;2022-12-10T07:25:05;19.63;;;14.13;;
15246;SDS011;7726;48.820;9.248;2022-12-10T07:27:32;17.97;;;13.50;;
15246;SDS011;7726;48.820;9.248;2022-12-10T07:29:59;22.27;;;14.00;;
15246;SDS011;7726;48.820;9.248;2022-12-10T07:32:26;18.37;;;13.20;;
15246;SDS011;7726;48.820;9.248;2022-12-10T07:34:55;20.47;;;13.97;;
15246;SDS011;7726;48.820;9.248;2022-12-10T07:37:22;18.20;;;12.80;;
15246;SDS011;7726;48.820;9.248;2022-12-10T07:39:50;19.90;;;13.73;;
15246;SDS011;7726;48.820;9.248;2022-12-10T07:42:17;19.80;;;14.60;;
15246;SDS011;7726;48.820;9.248;2022-12-10T07:44:44;21.40;;;14.70;;
15246;SDS011;7726;48.820;9.248;2022-12-10T07:47:11;20.93;;;14.17;;
15246;SDS011;7726;48.820;9.248;2022-12-10T07:49:39;21.97;;;14.77;;
15246;SDS011;7726;48.820;9.248;2022-12-10T07:52:07;18.77;;;13.27;;
15246;SDS011;7726;48.820;9.248;2022-12-10T07:54:34;20.07;;;14.77;;
15246;SDS011;7726;48.820;9.248;2022-12-10T07:57:02;20.37;;;14.43;;
15246;SDS011;7726;48.820;9.248;2022-12-10T07:59:29;19.63;;;14.80;;
15246;SDS011;7726;48.820;9.248;2022-12-10T08:01:56;19.00;;;14.00;;
15246;SDS011;7726;48.820;9.248;2022-12-10T08:04:24;20.07;;;13.67;;
15246;SDS011;7726;48.820;9.248;2022-12-10T08:06:54;21.40;;;14.37;;
15246;SDS011;7726;48.820;9.248;2022-12-10T08:09:23;19.00;;;13.80;;
15246;SDS011;7726;48.820;9.248;2022-12-10T08:11:50;19.33;;;14.67;;
15246;SDS011;7726;48.820;9.248;2022-12-10T08:14:17;19.57;;;14.10;;
15246;SDS011;7726;48.820;9.248;2022-12-10T08:16:44;22.30;;;14.50;;
15246;SDS011;7726;48.820;9.248;2022-12-10T08:19:11;20.07;;;14.37;;
15246;SDS011;7726;48.820;9.248;2022-12-10T08:21:38;19.07;;;13.73;;
15246;SDS011;7726;48.820;9.248;2022-12-10T08:24:06;21.80;;;14.77;;
15246;SDS011;7726;48.820;9.248;2022-12-10T08:26:34;19.73;;;13.77;;
15246;SDS011;7726;48.820;9.248;2022-12-10T08:29:02;20.53;;;14.73;;
15246;SDS011;7726;48.820;9.248;2022-12-10T08:31:29;22.30;;;15.03;;
15246;SDS011;7726;48.820;9.248;2022-12-10T08:33:56;19.60;;;14.10;;
15246;SDS011;7726;48.820;9.248;2022-12-10T08:36:24;21.20;;;14.73;;
15246;SDS011;7726;48.820;9.248;2022-12-10T08:38:51;21.63;;;14.67;;
15246;SDS011;7726;48.820;9.248;2022-12-10T08:41:18;21.37;;;13.00;;
15246;SDS011;7726;48.820;9.248;2022-12-10T08:43:47;24.10;;;14.50;;
15246;SDS011;7726;48.820;9.248;2022-12-10T08:46:15;21.87;;;14.20;;
15246;SDS011;7726;48.820;9.248;2022-12-10T08:48:42;19.67;;;13.57;;
15246;SDS011;7726;48.820;9.248;2022-12-10T08:51:10;22.20;;;14.67;;
15246;SDS011;7726;48.820;9.248;2022-12-10T08:53:37;19.33;;;13.53;;
15246;SDS011;7726;48.820;9.248;2022-12-10T08:56:05;19.43;;;12.77;;
15246;SDS011;7726;48.820;9.248;2022-12-10T08:58:32;22.70;;;15.40;;
15246;SDS011;7726;48.820;9.248;2022-12-10T09:01:00;20.40;;;14.60;;
15246;SDS011;7726;48.820;9.248;2022-12-10T09:03:31;20.27;;;14.77;;
15246;SDS011;7726;48.820;9.248;2022-12-10T09:06:01;21.40;;;14.77;;
15246;SDS011;7726;48.820;9.248;2022-12-10T09:08:28;21.90;;;14.97;;
15246;SDS011;7726;48.820;9.248;2022-12-10T09:10:55;22.83;;;14.67;;
15246;SDS011;7726;48.820;9.248;2022-12-10T09:13:22;21.67;;;14.83;;
15246;SDS011;7726;48.820;9.248;2022-12-10T09:15:50;22.37;;;15.27;;
15246;SDS011;7726;48.820;9.248;2022-12-10T09:18:18;20.63;;;13.43;;
15246;SDS011;7726;48.820;9.248;2022-12-10T09:20:46;20.07;;;14.97;;
15246;SDS011;7726;48.820;9.248;2022-12-10T09:23:13;23.83;;;16.33;;
15246;SDS011;7726;48.820;9.248;2022-12-10T09:25:40;19.90;;;14.20;;
15246;SDS011;7726;48.820;9.248;2022-12-10T09:28:07;19.60;;;14.53;;
15246;SDS011;7726;48.820;9.248;2022-12-10T09:30:34;21.00;;;15.03;;
15246;SDS011;7726;48.820;9.248;2022-12-10T09:33:02;20.87;;;15.17;;
15246;SDS011;7726;48.820;9.248;2022-12-10T09:35:30;21.83;;;15.57;;
15246;SDS011;7726;48.820;9.248;2022-12-10T09:37:58;21.03;;;14.97;;
15246;SDS011;7726;48.820;9.248;2022-12-10T09:40:27;21.60;;;15.00;;
15246;SDS011;7726;48.820;9.248;2022-12-10T09:42:57;23.17;;;15.83;;
15246;SDS011;7726;48.820;9.248;2022-12-10T09:45:28;23.70;;;14.63;;
15246;SDS011;7726;48.820;9.248;2022-12-10T09:47:59;20.37;;;15.20;;
15246;SDS011;7726;48.820;9.248;2022-12-10T09:50:29;19.43;;;14.50;;
15246;SDS011;7726;48.820;9.248;2022-12-10T09:52:59;19.20;;;14.50;;
15246;SDS011;7726;48.820;9.248;2022-12-10T09:55:31;21.07;;;14.07;;
15246;SDS011;7726;48.820;9.248;2022-12-10T09:57:59;19.90;;;14.47;;
15246;SDS011;7726;48.820;9.248;2022-12-10T10:00:30;20.87;;;14.70;;
15246;SDS011;7726;48.820;9.248;2022-12-10T10:02:58;20.87;;;15.53;;
15246;SDS011;7726;48.820;9.248;2022-12-10T10:05:26;20.00;;;14.93;;
15246;SDS011;7726;48.820;9.248;2022-12-10T10:07:55;19.83;;;14.50;;
15246;SDS011;7726;48.820;9.248;2022-12-10T10:10:25;20.27;;;14.73;;
15246;SDS011;7726;48.820;9.248;2022-12-10T10:12:54;21.03;;;14.83;;
15246;SDS011;7726;48.820;9.248;2022-12-10T10:15:24;21.03;;;15.13;;
15246;SDS011;7726;48.820;9.248;2022-12-10T10:17:52;18.73;;;13.80;;
15246;SDS011;7726;48.820;9.248;2022-12-10T10:20:20;21.97;;;15.27;;
15246;SDS011;7726;48.820;9.248;2022-12-10T10:22:47;18.77;;;14.10;;
15246;SDS011;7726;48.820;9.248;2022-12-10T10:25:15;21.50;;;14.60;;
15246;SDS011;7726;48.820;9.248;2022-12-10T10:27:44;19.63;;;14.03;;
15246;SDS011;7726;48.820;9.248;2022-12-10T10:30:13;20.23;;;14.20;;
15246;SDS011;7726;48.820;9.248;2022-12-10T10:32:46;18.57;;;14.17;;
15246;SDS011;7726;48.820;9.248;2022-12-10T10:35:22;20.53;;;14.27;;
15246;SDS011;7726;48.820;9.248;2022-12-10T10:37:49;20.33;;;14.57;;
15246;SDS011;7726;48.820;9.248;2022-12-10T10:40:21;17.20;;;13.40;;
15246;SDS011;7726;48.820;9.248;2022-12-10T10:42:51;24.00;;;13.83;;
15246;SDS011;7726;48.820;9.248;2022-12-10T10:45:30;20.07;;;13.10;;
15246;SDS011;7726;48.820;9.248;2022-12-10T10:48:03;15.07;;;10.83;;
15246;SDS011;7726;48.820;9.248;2022-12-10T10:50:30;16.77;;;12.60;;
15246;SDS011;7726;48.820;9.248;2022-12-10T10:53:08;18.40;;;13.87;;
15246;SDS011;7726;48.820;9.248;2022-12-10T10:55:45;18.50;;;13.80;;
15246;SDS011;7726;48.820;9.248;2022-12-10T10:58:16;18.93;;;13.47;;
15246;SDS011;7726;48.820;9.248;2022-12-10T11:00:52;17.03;;;13.60;;
15246;SDS011;7726;48.820;9.248;2022-12-10T11:03:19;19.90;;;14.43;;
15246;SDS011;7726;48.820;9.248;2022-12-10T11:05:47;20.63;;;13.97;;
15246;SDS011;7726;48.820;9.248;2022-12-10T11:08:15;21.93;;;14.63;;
15246;SDS011;7726;48.820;9.248;2022-12-10T11:10:46;17.93;;;13.70;;
15246;SDS011;7726;48.820;9.248;2022-12-10T11:13:20;20.30;;;14.40;;
15246;SDS011;7726;48.820;9.248;2022-12-10T11:15:54;18.87;;;13.70;;
15246;SDS011;7726;48.820;9.248;2022-12-10T11:18:23;19.27;;;14.47;;
15246;SDS011;7726;48.820;9.248;2022-12-10T11:20:56;20.10;;;14.07;;
15246;SDS011;7726;48.820;9.248;2022-12-10T11:23:23;18.33;;;13.03;;
15246;SDS011;7726;48.820;9.248;2022-12-10T11:25:55;19.63;;;13.87;;
15246;SDS011;7726;48.820;9.248;2022-12-10T11:28:30;17.77;;;13.83;;
15246;SDS011;7726;48.820;9.248;2022-12-10T11:31:04;18.53;;;13.07;;
15246;SDS011;7726;48.820;9.248;2022-12-10T11:33:37;20.80;;;15.57;;
15246;SDS011;7726;48.820;9.248;2022-12-10T11:36:23;19.27;;;13.83;;
15246;SDS011;7726;48.820;9.248;2022-12-10T11:38:56;18.13;;;14.00;;
15246;SDS011;7726;48.820;9.248;2022-12-10T11:41:30;19.33;;;14.50;;
15246;SDS011;7726;48.820;9.248;2022-12-10T11:44:06;19.10;;;14.47;;
15246;SDS011;7726;48.820;9.248;2022-12-10T11:46:42;19.03;;;13.30;;
15246;SDS011;7726;48.820;9.248;2022-12-10T11:49:16;19.50;;;13.63;;
15246;SDS011;7726;48.820;9.248;2022-12-10T11:51:46;18.10;;;14.30;;
15246;SDS011;7726;48.820;9.248;2022-12-10T11:54:21;18.57;;;13.33;;
15246;SDS011;7726;48.820;9.248;2022-12-10T11:56:52;21.10;;;13.97;;
15246;SDS011;7726;48.820;9.248;2022-12-10T11:59:26;19.13;;;13.47;;
15246;SDS011;7726;48.820;9.248;2022-12-10T12:01:59;17.37;;;13.50;;
15246;SDS011;7726;48.820;9.248;2022-12-10T12:04:40;18.23;;;13.97;;
15246;SDS011;7726;48.820;9.248;2022-12-10T12:07:25;21.90;;;13.83;;
15246;SDS011;7726;48.820;9.248;2022-12-10T12:12:48;19.03;;;13.50;;
15246;SDS011;7726;48.820;9.248;2022-12-10T12:15:19;19.53;;;13.73;;
15246;SDS011;7726;48.820;9.248;2022-12-10T12:17:50;18.23;;;13.47;;
15246;SDS011;7726;48.820;9.248;2022-12-10T12:20:20;21.37;;;14.17;;
15246;SDS011;7726;48.820;9.248;2022-12-10T12:22:50;16.60;;;12.73;;
15246;SDS011;7726;48.820;9.248;2022-12-10T12:25:20;19.57;;;12.97;;
15246;SDS011;7726;48.820;9.248;2022-12-10T12:27:50;17.57;;;13.17;;
15246;SDS011;7726;48.820;9.248;2022-12-10T12:30:20;15.87;;;12.13;;
15246;SDS011;7726;48.820;9.248;2022-12-10T12:32:50;17.43;;;12.60;;
15246;SDS011;7726;48.820;9.248;2022-12-10T12:35:19;15.77;;;11.80;;
15246;SDS011;7726;48.820;9.248;2022-12-10T12:37:49;19.33;;;12.80;;
15246;SDS011;7726;48.820;9.248;2022-12-10T12:40:22;18.93;;;12.93;;
15246;SDS011;7726;48.820;9.248;2022-12-10T12:42:52;20.63;;;11.90;;
15246;SDS011;7726;48.820;9.248;2022-12-10T12:45:25;16.37;;;12.17;;
15246;SDS011;7726;48.820;9.248;2022-12-10T12:47:56;16.40;;;10.67;;
15246;SDS011;7726;48.820;9.248;2022-12-10T12:50:26;16.70;;;11.63;;
15246;SDS011;7726;48.820;9.248;2022-12-10T12:52:57;15.23;;;11.33;;
15246;SDS011;7726;48.820;9.248;2022-12-10T12:55:27;16.43;;;12.07;;
15246;SDS011;7726;48.820;9.248;2022-12-10T12:57:57;16.90;;;12.67;;
15246;SDS011;7726;48.820;9.248;2022-12-10T13:00:31;18.37;;;13.60;;
15246;SDS011;7726;48.820;9.248;2022-12-10T13:03:05;16.63;;;11.27;;
15246;SDS011;7726;48.820;9.248;2022-12-10T13:05:35;17.17;;;11.67;;
15246;SDS011;7726;48.820;9.248;2022-12-10T13:08:22;18.33;;;12.30;;
15246;SDS011;7726;48.820;9.248;2022-12-10T13:10:51;15.97;;;10.50;;
15246;SDS011;7726;48.820;9.248;2022-12-10T13:13:23;16.30;;;11.00;;
15246;SDS011;7726;48.820;9.248;2022-12-10T13:15:52;18.57;;;12.57;;
15246;SDS011;7726;48.820;9.248;2022-12-10T13:18:33;13.40;;;10.73;;
15246;SDS011;7726;48.820;9.248;2022-12-10T13:21:17;16.30;;;12.07;;
15246;SDS011;7726;48.820;9.248;2022-12-10T13:23:52;15.43;;;11.03;;
15246;SDS011;7726;48.820;9.248;2022-12-10T13:26:24;16.13;;;11.70;;
15246;SDS011;7726;48.820;9.248;2022-12-10T13:28:51;15.27;;;11.60;;
15246;SDS011;7726;48.820;9.248;2022-12-10T13:31:22;19.10;;;11.90;;
15246;SDS011;7726;48.820;9.248;2022-12-10T13:33:50;17.17;;;10.87;;
15246;SDS011;7726;48.820;9.248;2022-12-10T13:36:20;19.30;;;11.73;;
15246;SDS011;7726;48.820;9.248;2022-12-10T13:38:54;19.00;;;12.73;;
15246;SDS011;7726;48.820;9.248;2022-12-10T13:41:21;16.20;;;11.37;;
15246;SDS011;7726;48.820;9.248;2022-12-10T13:44:24;18.40;;;13.13;;
15246;SDS011;7726;48.820;9.248;2022-12-10T13:47:00;16.20;;;12.50;;
15246;SDS011;7726;48.820;9.248;2022-12-10T13:49:31;15.53;;;11.80;;
15246;SDS011;7726;48.820;9.248;2022-12-10T13:52:02;18.57;;;12.30;;
15246;SDS011;7726;48.820;9.248;2022-12-10T13:54:40;14.23;;;11.23;;
15246;SDS011;7726;48.820;9.248;2022-12-10T13:57:15;15.67;;;11.77;;
15246;SDS011;7726;48.820;9.248;2022-12-10T13:59:47;15.90;;;11.77;;
15246;SDS011;7726;48.820;9.248;2022-12-10T14:02:31;21.10;;;13.47;;
15246;SDS011;7726;48.820;9.248;2022-12-10T14:05:10;19.50;;;12.93;;
15246;SDS011;7726;48.820;9.248;2022-12-10T14:07:42;20.27;;;13.03;;
15246;SDS011;7726;48.820;9.248;2022-12-10T14:10:12;19.07;;;12.77;;
15246;SDS011;7726;48.820;9.248;2022-12-10T14:12:41;18.13;;;13.60;;
15246;SDS011;7726;48.820;9.248;2022-12-10T14:15:14;16.90;;;12.83;;
15246;SDS011;7726;48.820;9.248;2022-12-10T14:17:44;18.00;;;13.43;;
15246;SDS011;7726;48.820;9.248;2022-12-10T14:20:17;21.83;;;14.17;;
15246;SDS011;7726;48.820;9.248;2022-12-10T14:22:45;20.67;;;13.47;;
15246;SDS011;7726;48.820;9.248;2022-12-10T14:25:14;18.33;;;13.40;;
15246;SDS011;7726;48.820;9.248;2022-12-10T14:27:42;21.67;;;14.13;;
15246;SDS011;7726;48.820;9.248;2022-12-10T14:30:15;18.17;;;13.37;;
15246;SDS011;7726;48.820;9.248;2022-12-10T14:32:43;19.30;;;12.90;;
15246;SDS011;7726;48.820;9.248;2022-12-10T14:35:12;18.47;;;12.83;;
15246;SDS011;7726;48.820;9.248;2022-12-10T14:37:40;18.23;;;13.07;;
15246;SDS011;7726;48.820;9.248;2022-12-10T14:40:08;21.13;;;13.83;;
15246;SDS011;7726;48.820;9.248;2022-12-10T14:42:39;18.60;;;13.47;;
15246;SDS011;7726;48.820;9.248;2022-12-10T14:45:07;20.97;;;13.13;;
15246;SDS011;7726;48.820;9.248;2022-12-10T14:47:35;18.57;;;13.00;;
15246;SDS011;7726;48.820;9.248;2022-12-10T14:50:09;19.50;;;13.07;;